Portada
METAR-TAF:

METAR-TAF

Aeropuertos :

Castres, Francia

latitud: 43-33-25N, longitud: 2-17-21E, altitud: 239 m

Observación

El informe se hizo hace 36 minutos, a las 08:30 UTC
Viento 5 kt del oeste, variando entre suroeste y norte-noroeste
Temperatura 12°C
Humedad 67%
Presión 1016 hPa
Visibilidad 10 km o más
Cielo nuboso a una altura de 2400 ft
Cielo nuboso a una altura de 3500 ft

METAR: LFCK 130830Z AUTO 28005KT 230V330 9999 BKN024 BKN035 12/06 Q1016 NOSIG

Hora: 11:06 (09:06 UTC)

Pronóstico

El informe se hizo hace 1 hora y 6 minutos, a las 08:00 UTC
Pronóstico válido del 13 a las 09 UTC al 13 a las 18 UTC
Viento 8 kt del oeste
Visibilidad 10 km o más
Nubes dispersas a una altura de 3000 ft
Evolucionando progresivamente
del 13 a las 13 UTC al 13 a las 15 UTC
Nubes dispersas a una altura de 4000 ft, Cumulus congestus.

TAF: LFCK 130800Z 1309/1318 28008KT 9999 SCT030 BECMG 1313/1315 SCT040TCU

Observaciones y pronósticos meteorológicos de más de 4000 aeropuertos (mensajes METAR y TAF).

Los puntos amarillos y rojos representan las estaciones disponibles.

Ponga el ratón en el punto deseado para ver el nombre de la estación.

Haga clic para ver las observaciones y los pronósticos meteorológicos.

Para cambiar el mapa : haga clic en los botones verdes con una cruz de color negro para hacer un zoom, en el botón verde con un guión para alejar o en las flechas verdes para mapas adyacentes.


METAR-TAF: